sensor_id;sensor_type;location;lat;lon;timestamp;pressure;altitude;pressure_sealevel;temperature;humidity
2405;BME280;1213;43.206;27.922;2022-12-10T00:00:52;100845.47;;;12.62;100.00
2405;BME280;1213;43.206;27.922;2022-12-10T00:03:17;100844.59;;;12.62;100.00
2405;BME280;1213;43.206;27.922;2022-12-10T00:05:43;100839.97;;;12.65;100.00
2405;BME280;1213;43.206;27.922;2022-12-10T00:08:08;100843.00;;;12.72;100.00
2405;BME280;1213;43.206;27.922;2022-12-10T00:10:33;100842.91;;;12.61;100.00
2405;BME280;1213;43.206;27.922;2022-12-10T00:12:59;100844.03;;;12.69;100.00
2405;BME280;1213;43.206;27.922;2022-12-10T00:15:24;100843.94;;;12.71;100.00
2405;BME280;1213;43.206;27.922;2022-12-10T00:17:50;100826.91;;;12.64;100.00
2405;BME280;1213;43.206;27.922;2022-12-10T00:20:15;100825.09;;;12.64;100.00
2405;BME280;1213;43.206;27.922;2022-12-10T00:22:41;100828.06;;;12.60;100.00
2405;BME280;1213;43.206;27.922;2022-12-10T00:25:07;100827.59;;;12.55;100.00
2405;BME280;1213;43.206;27.922;2022-12-10T00:27:32;100823.34;;;12.52;100.00
2405;BME280;1213;43.206;27.922;2022-12-10T00:29:57;100830.22;;;12.55;100.00
2405;BME280;1213;43.206;27.922;2022-12-10T00:32:23;100820.03;;;12.61;100.00
2405;BME280;1213;43.206;27.922;2022-12-10T00:34:48;100819.44;;;12.58;100.00
2405;BME280;1213;43.206;27.922;2022-12-10T00:37:14;100820.88;;;12.62;100.00
2405;BME280;1213;43.206;27.922;2022-12-10T00:39:39;100818.16;;;12.63;100.00
2405;BME280;1213;43.206;27.922;2022-12-10T00:42:04;100815.97;;;12.57;100.00
2405;BME280;1213;43.206;27.922;2022-12-10T00:44:30;100822.41;;;12.53;100.00
2405;BME280;1213;43.206;27.922;2022-12-10T00:46:55;100811.09;;;12.40;100.00
2405;BME280;1213;43.206;27.922;2022-12-10T00:49:21;100813.75;;;12.40;100.00
2405;BME280;1213;43.206;27.922;2022-12-10T00:51:50;100809.06;;;12.43;100.00
2405;BME280;1213;43.206;27.922;2022-12-10T00:54:15;100802.13;;;12.42;100.00
2405;BME280;1213;43.206;27.922;2022-12-10T00:56:41;100797.94;;;12.40;100.00
2405;BME280;1213;43.206;27.922;2022-12-10T00:59:06;100796.00;;;12.42;100.00
2405;BME280;1213;43.206;27.922;2022-12-10T01:01:35;100794.53;;;12.38;100.00
2405;BME280;1213;43.206;27.922;2022-12-10T01:04:06;100798.50;;;12.32;100.00
2405;BME280;1213;43.206;27.922;2022-12-10T01:06:40;100793.31;;;12.31;100.00
2405;BME280;1213;43.206;27.922;2022-12-10T01:09:08;100792.72;;;12.27;100.00
2405;BME280;1213;43.206;27.922;2022-12-10T01:11:36;100787.19;;;12.30;100.00
2405;BME280;1213;43.206;27.922;2022-12-10T01:14:02;100785.97;;;12.23;100.00
2405;BME280;1213;43.206;27.922;2022-12-10T01:16:28;100782.09;;;12.16;100.00
2405;BME280;1213;43.206;27.922;2022-12-10T01:18:55;100775.81;;;12.06;100.00
2405;BME280;1213;43.206;27.922;2022-12-10T01:21:21;100783.84;;;12.04;100.00
2405;BME280;1213;43.206;27.922;2022-12-10T01:23:49;100775.81;;;12.06;100.00
2405;BME280;1213;43.206;27.922;2022-12-10T01:26:17;100778.16;;;11.98;100.00
2405;BME280;1213;43.206;27.922;2022-12-10T01:28:44;100774.06;;;11.93;100.00
2405;BME280;1213;43.206;27.922;2022-12-10T01:31:19;100767.66;;;11.85;100.00
2405;BME280;1213;43.206;27.922;2022-12-10T01:33:46;100769.59;;;11.83;100.00
2405;BME280;1213;43.206;27.922;2022-12-10T01:36:15;100771.78;;;11.76;100.00
2405;BME280;1213;43.206;27.922;2022-12-10T01:38:41;100758.09;;;11.71;100.00
2405;BME280;1213;43.206;27.922;2022-12-10T01:41:09;100745.16;;;11.68;100.00
2405;BME280;1213;43.206;27.922;2022-12-10T01:44:00;100751.81;;;11.61;100.00
2405;BME280;1213;43.206;27.922;2022-12-10T01:46:29;100763.50;;;11.57;100.00
2405;BME280;1213;43.206;27.922;2022-12-10T01:48:55;100755.41;;;11.60;100.00
2405;BME280;1213;43.206;27.922;2022-12-10T01:51:23;100755.94;;;11.52;100.00
2405;BME280;1213;43.206;27.922;2022-12-10T01:53:49;100745.00;;;11.46;100.00
2405;BME280;1213;43.206;27.922;2022-12-10T01:56:17;100736.91;;;11.49;100.00
2405;BME280;1213;43.206;27.922;2022-12-10T01:58:44;100738.91;;;11.45;100.00
2405;BME280;1213;43.206;27.922;2022-12-10T02:02:17;100735.31;;;11.46;100.00
2405;BME280;1213;43.206;27.922;2022-12-10T02:09:42;100728.34;;;11.58;100.00
2405;BME280;1213;43.206;27.922;2022-12-10T02:13:01;100725.91;;;11.55;100.00
2405;BME280;1213;43.206;27.922;2022-12-10T02:17:39;100718.25;;;11.52;100.00
2405;BME280;1213;43.206;27.922;2022-12-10T02:20:13;100713.53;;;11.57;100.00
2405;BME280;1213;43.206;27.922;2022-12-10T02:22:53;100711.81;;;11.56;100.00
2405;BME280;1213;43.206;27.922;2022-12-10T02:25:26;100710.06;;;11.56;100.00
2405;BME280;1213;43.206;27.922;2022-12-10T02:30:39;100711.50;;;11.60;100.00
2405;BME280;1213;43.206;27.922;2022-12-10T02:33:07;100704.97;;;11.66;100.00
2405;BME280;1213;43.206;27.922;2022-12-10T02:35:35;100710.34;;;11.64;100.00
2405;BME280;1213;43.206;27.922;2022-12-10T02:38:25;100713.16;;;11.61;100.00
2405;BME280;1213;43.206;27.922;2022-12-10T02:40:57;100700.41;;;11.68;100.00
2405;BME280;1213;43.206;27.922;2022-12-10T02:43:26;100706.88;;;11.64;100.00
2405;BME280;1213;43.206;27.922;2022-12-10T02:45:55;100701.81;;;11.61;100.00
2405;BME280;1213;43.206;27.922;2022-12-10T02:48:22;100708.44;;;11.66;100.00
2405;BME280;1213;43.206;27.922;2022-12-10T02:50:47;100705.25;;;11.74;100.00
2405;BME280;1213;43.206;27.922;2022-12-10T02:53:13;100701.66;;;11.75;100.00
2405;BME280;1213;43.206;27.922;2022-12-10T03:01:29;100685.59;;;11.67;100.00
2405;BME280;1213;43.206;27.922;2022-12-10T03:04:10;100689.22;;;11.77;100.00
2405;BME280;1213;43.206;27.922;2022-12-10T03:06:46;100681.16;;;11.80;100.00
2405;BME280;1213;43.206;27.922;2022-12-10T03:09:21;100677.56;;;11.81;100.00
2405;BME280;1213;43.206;27.922;2022-12-10T03:11:48;100679.13;;;11.84;100.00
2405;BME280;1213;43.206;27.922;2022-12-10T03:14:22;100672.69;;;11.88;100.00
2405;BME280;1213;43.206;27.922;2022-12-10T03:16:54;100673.00;;;11.83;100.00
2405;BME280;1213;43.206;27.922;2022-12-10T03:19:25;100682.91;;;11.80;100.00
2405;BME280;1213;43.206;27.922;2022-12-10T03:21:52;100673.84;;;11.84;100.00
2405;BME280;1213;43.206;27.922;2022-12-10T03:24:19;100679.75;;;11.87;100.00
2405;BME280;1213;43.206;27.922;2022-12-10T03:26:47;100680.03;;;11.96;100.00
2405;BME280;1213;43.206;27.922;2022-12-10T03:29:22;100683.25;;;11.99;100.00
2405;BME280;1213;43.206;27.922;2022-12-10T03:31:49;100672.72;;;11.99;100.00
2405;BME280;1213;43.206;27.922;2022-12-10T03:34:16;100666.28;;;12.03;100.00
2405;BME280;1213;43.206;27.922;2022-12-10T03:36:41;100677.28;;;11.97;100.00
2405;BME280;1213;43.206;27.922;2022-12-10T03:39:08;100667.31;;;11.89;100.00
2405;BME280;1213;43.206;27.922;2022-12-10T03:41:33;100664.91;;;11.86;100.00
2405;BME280;1213;43.206;27.922;2022-12-10T03:44:00;100669.84;;;11.78;100.00
2405;BME280;1213;43.206;27.922;2022-12-10T03:46:28;100658.53;;;11.65;100.00
2405;BME280;1213;43.206;27.922;2022-12-10T03:48:54;100657.75;;;11.76;100.00
2405;BME280;1213;43.206;27.922;2022-12-10T03:51:20;100652.09;;;11.69;100.00
2405;BME280;1213;43.206;27.922;2022-12-10T03:53:46;100663.00;;;11.76;100.00
2405;BME280;1213;43.206;27.922;2022-12-10T03:56:14;100658.72;;;11.75;100.00
2405;BME280;1213;43.206;27.922;2022-12-10T03:58:39;100661.25;;;11.63;100.00
2405;BME280;1213;43.206;27.922;2022-12-10T04:01:05;100660.13;;;11.55;100.00
2405;BME280;1213;43.206;27.922;2022-12-10T04:03:30;100651.41;;;11.54;100.00
2405;BME280;1213;43.206;27.922;2022-12-10T04:06:09;100645.75;;;11.48;100.00
2405;BME280;1213;43.206;27.922;2022-12-10T04:08:35;100648.19;;;11.38;100.00
2405;BME280;1213;43.206;27.922;2022-12-10T04:11:06;100646.75;;;11.34;100.00
2405;BME280;1213;43.206;27.922;2022-12-10T04:13:35;100645.16;;;11.31;100.00
2405;BME280;1213;43.206;27.922;2022-12-10T04:16:20;100645.88;;;11.33;100.00
2405;BME280;1213;43.206;27.922;2022-12-10T04:18:53;100652.03;;;11.34;100.00
2405;BME280;1213;43.206;27.922;2022-12-10T04:21:19;100663.03;;;11.39;100.00
2405;BME280;1213;43.206;27.922;2022-12-10T04:24:03;100657.47;;;11.44;100.00
2405;BME280;1213;43.206;27.922;2022-12-10T04:26:47;100649.59;;;11.31;100.00
2405;BME280;1213;43.206;27.922;2022-12-10T04:29:20;100649.06;;;11.26;100.00
2405;BME280;1213;43.206;27.922;2022-12-10T04:31:46;100648.03;;;11.28;100.00
2405;BME280;1213;43.206;27.922;2022-12-10T04:34:11;100650.03;;;11.25;100.00
2405;BME280;1213;43.206;27.922;2022-12-10T04:36:37;100647.50;;;11.23;100.00
2405;BME280;1213;43.206;27.922;2022-12-10T04:39:03;100640.69;;;11.21;100.00
2405;BME280;1213;43.206;27.922;2022-12-10T04:41:29;100638.47;;;11.27;100.00
2405;BME280;1213;43.206;27.922;2022-12-10T04:43:54;100646.56;;;11.24;100.00
2405;BME280;1213;43.206;27.922;2022-12-10T04:46:20;100647.22;;;11.15;100.00
2405;BME280;1213;43.206;27.922;2022-12-10T04:48:45;100641.41;;;11.23;100.00
2405;BME280;1213;43.206;27.922;2022-12-10T04:51:11;100639.09;;;11.18;100.00
2405;BME280;1213;43.206;27.922;2022-12-10T04:53:36;100645.84;;;11.09;100.00
2405;BME280;1213;43.206;27.922;2022-12-10T04:56:02;100654.03;;;11.18;100.00
2405;BME280;1213;43.206;27.922;2022-12-10T04:58:30;100654.44;;;11.24;100.00
2405;BME280;1213;43.206;27.922;2022-12-10T05:01:07;100655.63;;;11.20;100.00
2405;BME280;1213;43.206;27.922;2022-12-10T05:03:33;100650.06;;;11.12;100.00
2405;BME280;1213;43.206;27.922;2022-12-10T05:06:06;100654.19;;;11.03;100.00
2405;BME280;1213;43.206;27.922;2022-12-10T05:08:33;100659.22;;;11.06;100.00
2405;BME280;1213;43.206;27.922;2022-12-10T05:11:04;100653.31;;;11.16;100.00
2405;BME280;1213;43.206;27.922;2022-12-10T05:13:30;100656.28;;;11.11;100.00
2405;BME280;1213;43.206;27.922;2022-12-10T05:15:55;100650.91;;;11.13;100.00
2405;BME280;1213;43.206;27.922;2022-12-10T05:18:21;100665.84;;;11.12;100.00
2405;BME280;1213;43.206;27.922;2022-12-10T05:20:47;100668.13;;;11.17;100.00
2405;BME280;1213;43.206;27.922;2022-12-10T05:23:13;100664.56;;;11.18;100.00
2405;BME280;1213;43.206;27.922;2022-12-10T05:26:05;100669.72;;;11.19;100.00
2405;BME280;1213;43.206;27.922;2022-12-10T05:28:34;100666.44;;;11.28;100.00
2405;BME280;1213;43.206;27.922;2022-12-10T05:31:00;100673.25;;;11.44;100.00
2405;BME280;1213;43.206;27.922;2022-12-10T05:33:26;100672.09;;;11.35;100.00
2405;BME280;1213;43.206;27.922;2022-12-10T05:35:59;100658.44;;;11.30;100.00
2405;BME280;1213;43.206;27.922;2022-12-10T05:38:26;100667.69;;;11.35;100.00
2405;BME280;1213;43.206;27.922;2022-12-10T05:40:52;100660.63;;;11.36;100.00
2405;BME280;1213;43.206;27.922;2022-12-10T05:43:18;100658.84;;;11.36;100.00
2405;BME280;1213;43.206;27.922;2022-12-10T05:45:43;100662.19;;;11.38;100.00
2405;BME280;1213;43.206;27.922;2022-12-10T05:48:10;100662.31;;;11.37;100.00
2405;BME280;1213;43.206;27.922;2022-12-10T05:50:37;100670.81;;;11.40;100.00
2405;BME280;1213;43.206;27.922;2022-12-10T05:53:04;100682.09;;;11.43;100.00
2405;BME280;1213;43.206;27.922;2022-12-10T05:55:30;100681.84;;;11.46;100.00
2405;BME280;1213;43.206;27.922;2022-12-10T05:57:58;100687.22;;;11.44;100.00
2405;BME280;1213;43.206;27.922;2022-12-10T06:00:24;100676.19;;;11.39;100.00
2405;BME280;1213;43.206;27.922;2022-12-10T06:02:50;100679.47;;;11.43;100.00
2405;BME280;1213;43.206;27.922;2022-12-10T06:05:16;100676.81;;;11.43;100.00
2405;BME280;1213;43.206;27.922;2022-12-10T06:07:42;100678.38;;;11.45;100.00
2405;BME280;1213;43.206;27.922;2022-12-10T06:10:07;100665.66;;;11.39;100.00
2405;BME280;1213;43.206;27.922;2022-12-10T06:12:33;100671.75;;;11.39;100.00
2405;BME280;1213;43.206;27.922;2022-12-10T06:14:59;100661.53;;;11.48;100.00
2405;BME280;1213;43.206;27.922;2022-12-10T06:17:24;100675.72;;;11.58;100.00
2405;BME280;1213;43.206;27.922;2022-12-10T06:19:49;100665.09;;;11.59;100.00
2405;BME280;1213;43.206;27.922;2022-12-10T06:22:15;100665.69;;;11.63;100.00
2405;BME280;1213;43.206;27.922;2022-12-10T06:24:40;100666.09;;;11.70;100.00
2405;BME280;1213;43.206;27.922;2022-12-10T06:27:06;100673.44;;;11.77;100.00
2405;BME280;1213;43.206;27.922;2022-12-10T06:29:32;100663.72;;;11.90;100.00
2405;BME280;1213;43.206;27.922;2022-12-10T06:31:57;100655.63;;;12.05;100.00
2405;BME280;1213;43.206;27.922;2022-12-10T06:34:22;100657.00;;;12.21;100.00
2405;BME280;1213;43.206;27.922;2022-12-10T06:36:48;100658.47;;;12.26;100.00
2405;BME280;1213;43.206;27.922;2022-12-10T06:39:14;100656.09;;;12.34;100.00
2405;BME280;1213;43.206;27.922;2022-12-10T06:41:39;100665.94;;;12.43;100.00
2405;BME280;1213;43.206;27.922;2022-12-10T06:44:09;100661.63;;;12.53;100.00
2405;BME280;1213;43.206;27.922;2022-12-10T06:46:35;100663.69;;;12.61;100.00
2405;BME280;1213;43.206;27.922;2022-12-10T06:49:01;100661.53;;;12.66;100.00
2405;BME280;1213;43.206;27.922;2022-12-10T06:51:27;100665.06;;;12.77;100.00
2405;BME280;1213;43.206;27.922;2022-12-10T06:53:52;100668.78;;;12.86;100.00
2405;BME280;1213;43.206;27.922;2022-12-10T06:56:19;100670.06;;;12.92;100.00
2405;BME280;1213;43.206;27.922;2022-12-10T06:58:45;100676.69;;;13.09;100.00
2405;BME280;1213;43.206;27.922;2022-12-10T07:03:39;100671.03;;;13.36;100.00
2405;BME280;1213;43.206;27.922;2022-12-10T07:06:05;100668.88;;;13.41;100.00
2405;BME280;1213;43.206;27.922;2022-12-10T07:08:31;100669.22;;;13.58;100.00
2405;BME280;1213;43.206;27.922;2022-12-10T07:10:57;100666.56;;;13.70;100.00
2405;BME280;1213;43.206;27.922;2022-12-10T07:13:23;100677.47;;;13.76;100.00
2405;BME280;1213;43.206;27.922;2022-12-10T07:15:49;100668.22;;;14.03;100.00
2405;BME280;1213;43.206;27.922;2022-12-10T07:18:14;100669.66;;;14.28;100.00
2405;BME280;1213;43.206;27.922;2022-12-10T07:20:40;100668.38;;;14.54;100.00
2405;BME280;1213;43.206;27.922;2022-12-10T07:23:05;100673.63;;;14.75;100.00
2405;BME280;1213;43.206;27.922;2022-12-10T07:25:32;100678.41;;;14.81;100.00
2405;BME280;1213;43.206;27.922;2022-12-10T07:27:57;100678.69;;;14.88;100.00
2405;BME280;1213;43.206;27.922;2022-12-10T07:30:23;100680.25;;;14.90;100.00
2405;BME280;1213;43.206;27.922;2022-12-10T07:32:49;100682.13;;;14.99;100.00
2405;BME280;1213;43.206;27.922;2022-12-10T07:35:14;100685.63;;;15.10;100.00
2405;BME280;1213;43.206;27.922;2022-12-10T07:37:39;100676.03;;;15.18;100.00
2405;BME280;1213;43.206;27.922;2022-12-10T07:40:05;100685.69;;;15.19;100.00
2405;BME280;1213;43.206;27.922;2022-12-10T07:42:31;100687.19;;;15.12;100.00
2405;BME280;1213;43.206;27.922;2022-12-10T07:44:56;100689.38;;;15.07;100.00
2405;BME280;1213;43.206;27.922;2022-12-10T07:47:21;100692.53;;;14.91;100.00
2405;BME280;1213;43.206;27.922;2022-12-10T07:49:47;100686.91;;;14.85;100.00
2405;BME280;1213;43.206;27.922;2022-12-10T07:52:12;100683.81;;;14.80;100.00
2405;BME280;1213;43.206;27.922;2022-12-10T07:54:38;100678.63;;;14.68;100.00
2405;BME280;1213;43.206;27.922;2022-12-10T07:57:03;100683.94;;;14.78;100.00
2405;BME280;1213;43.206;27.922;2022-12-10T07:59:28;100676.59;;;14.82;100.00
2405;BME280;1213;43.206;27.922;2022-12-10T08:01:54;100679.28;;;14.91;100.00
2405;BME280;1213;43.206;27.922;2022-12-10T08:04:20;100675.22;;;14.87;100.00
2405;BME280;1213;43.206;27.922;2022-12-10T08:06:45;100668.56;;;14.93;100.00
2405;BME280;1213;43.206;27.922;2022-12-10T08:09:12;100667.59;;;14.94;100.00
2405;BME280;1213;43.206;27.922;2022-12-10T08:11:38;100664.44;;;15.00;100.00
2405;BME280;1213;43.206;27.922;2022-12-10T08:14:03;100666.75;;;14.93;100.00
2405;BME280;1213;43.206;27.922;2022-12-10T08:16:29;100657.19;;;15.02;100.00
2405;BME280;1213;43.206;27.922;2022-12-10T08:18:58;100662.13;;;14.86;100.00
2405;BME280;1213;43.206;27.922;2022-12-10T08:21:27;100663.13;;;14.64;100.00
2405;BME280;1213;43.206;27.922;2022-12-10T08:23:54;100659.50;;;14.65;100.00
2405;BME280;1213;43.206;27.922;2022-12-10T08:26:21;100662.78;;;14.78;100.00
2405;BME280;1213;43.206;27.922;2022-12-10T08:28:48;100656.38;;;14.81;100.00
2405;BME280;1213;43.206;27.922;2022-12-10T08:31:15;100654.19;;;14.86;100.00
2405;BME280;1213;43.206;27.922;2022-12-10T08:33:41;100644.19;;;14.89;100.00
2405;BME280;1213;43.206;27.922;2022-12-10T08:36:09;100641.44;;;15.01;100.00
2405;BME280;1213;43.206;27.922;2022-12-10T08:38:36;100640.69;;;15.19;100.00
2405;BME280;1213;43.206;27.922;2022-12-10T08:41:18;100638.91;;;15.30;100.00
2405;BME280;1213;43.206;27.922;2022-12-10T08:43:44;100631.28;;;15.46;100.00
2405;BME280;1213;43.206;27.922;2022-12-10T08:46:11;100639.69;;;15.70;100.00
2405;BME280;1213;43.206;27.922;2022-12-10T08:48:37;100631.34;;;15.94;100.00
2405;BME280;1213;43.206;27.922;2022-12-10T08:51:04;100622.97;;;16.18;100.00
2405;BME280;1213;43.206;27.922;2022-12-10T08:53:30;100618.72;;;16.45;100.00
2405;BME280;1213;43.206;27.922;2022-12-10T08:55:55;100608.06;;;16.64;100.00
2405;BME280;1213;43.206;27.922;2022-12-10T08:58:21;100620.19;;;16.76;100.00
2405;BME280;1213;43.206;27.922;2022-12-10T09:00:48;100607.84;;;16.85;100.00
2405;BME280;1213;43.206;27.922;2022-12-10T09:03:14;100609.03;;;17.00;100.00
2405;BME280;1213;43.206;27.922;2022-12-10T09:05:41;100610.19;;;16.98;100.00
2405;BME280;1213;43.206;27.922;2022-12-10T09:08:06;100605.25;;;17.30;100.00
2405;BME280;1213;43.206;27.922;2022-12-10T09:10:32;100602.63;;;17.66;100.00
2405;BME280;1213;43.206;27.922;2022-12-10T09:12:57;100596.88;;;17.88;100.00
2405;BME280;1213;43.206;27.922;2022-12-10T09:15:23;100597.50;;;18.26;100.00
2405;BME280;1213;43.206;27.922;2022-12-10T09:17:48;100596.22;;;18.82;100.00
2405;BME280;1213;43.206;27.922;2022-12-10T09:20:14;100589.88;;;19.33;100.00
2405;BME280;1213;43.206;27.922;2022-12-10T09:22:39;100589.19;;;19.90;100.00
2405;BME280;1213;43.206;27.922;2022-12-10T09:25:06;100582.81;;;20.15;100.00
2405;BME280;1213;43.206;27.922;2022-12-10T09:27:32;100584.84;;;19.81;100.00
2405;BME280;1213;43.206;27.922;2022-12-10T09:29:58;100579.50;;;20.05;100.00
2405;BME280;1213;43.206;27.922;2022-12-10T09:32:24;100577.50;;;19.99;100.00
2405;BME280;1213;43.206;27.922;2022-12-10T09:34:52;100576.16;;;19.71;100.00
2405;BME280;1213;43.206;27.922;2022-12-10T09:37:18;100582.41;;;19.29;100.00
2405;BME280;1213;43.206;27.922;2022-12-10T09:39:43;100578.50;;;19.07;100.00
2405;BME280;1213;43.206;27.922;2022-12-10T09:42:18;100571.63;;;18.62;100.00
2405;BME280;1213;43.206;27.922;2022-12-10T09:45:02;100557.13;;;18.56;100.00
2405;BME280;1213;43.206;27.922;2022-12-10T09:47:58;100557.44;;;18.53;100.00
2405;BME280;1213;43.206;27.922;2022-12-10T09:50:35;100556.00;;;18.33;100.00
2405;BME280;1213;43.206;27.922;2022-12-10T09:53:07;100556.31;;;18.30;100.00
2405;BME280;1213;43.206;27.922;2022-12-10T09:55:42;100551.41;;;18.17;100.00
2405;BME280;1213;43.206;27.922;2022-12-10T09:58:14;100540.41;;;18.12;100.00
2405;BME280;1213;43.206;27.922;2022-12-10T10:00:44;100538.06;;;18.09;100.00
2405;BME280;1213;43.206;27.922;2022-12-10T10:03:15;100534.34;;;18.28;100.00
2405;BME280;1213;43.206;27.922;2022-12-10T10:05:44;100540.75;;;18.43;100.00
2405;BME280;1213;43.206;27.922;2022-12-10T10:10:55;100522.44;;;18.66;100.00
2405;BME280;1213;43.206;27.922;2022-12-10T10:15:50;100527.47;;;18.77;100.00
2405;BME280;1213;43.206;27.922;2022-12-10T10:18:36;100508.47;;;18.72;100.00
2405;BME280;1213;43.206;27.922;2022-12-10T10:21:14;100516.50;;;18.80;100.00
2405;BME280;1213;43.206;27.922;2022-12-10T10:23:43;100502.38;;;18.88;100.00
2405;BME280;1213;43.206;27.922;2022-12-10T10:26:10;100496.09;;;18.97;100.00
2405;BME280;1213;43.206;27.922;2022-12-10T10:28:35;100483.28;;;19.09;100.00
2405;BME280;1213;43.206;27.922;2022-12-10T10:31:02;100484.81;;;19.20;100.00
2405;BME280;1213;43.206;27.922;2022-12-10T10:33:27;100483.50;;;19.40;100.00
2405;BME280;1213;43.206;27.922;2022-12-10T10:35:55;100479.31;;;19.54;100.00
2405;BME280;1213;43.206;27.922;2022-12-10T10:38:26;100475.81;;;19.86;100.00
2405;BME280;1213;43.206;27.922;2022-12-10T10:40:57;100482.91;;;20.26;100.00
2405;BME280;1213;43.206;27.922;2022-12-10T10:45:54;100464.56;;;21.24;100.00
2405;BME280;1213;43.206;27.922;2022-12-10T10:48:24;100458.97;;;21.57;100.00
2405;BME280;1213;43.206;27.922;2022-12-10T10:50:55;100445.25;;;21.75;100.00
2405;BME280;1213;43.206;27.922;2022-12-10T10:55:59;100449.56;;;21.46;100.00
2405;BME280;1213;43.206;27.922;2022-12-10T10:58:26;100444.66;;;22.02;100.00
2405;BME280;1213;43.206;27.922;2022-12-10T11:00:58;100445.09;;;23.01;100.00
2405;BME280;1213;43.206;27.922;2022-12-10T11:03:25;100446.47;;;23.61;100.00
2405;BME280;1213;43.206;27.922;2022-12-10T11:05:51;100432.88;;;23.63;100.00
2405;BME280;1213;43.206;27.922;2022-12-10T11:08:18;100441.44;;;23.30;100.00
2405;BME280;1213;43.206;27.922;2022-12-10T11:10:58;100442.34;;;21.99;100.00
2405;BME280;1213;43.206;27.922;2022-12-10T11:13:32;100439.88;;;21.60;100.00
2405;BME280;1213;43.206;27.922;2022-12-10T11:16:31;100431.88;;;21.14;100.00
2405;BME280;1213;43.206;27.922;2022-12-10T11:19:02;100436.41;;;20.91;100.00
2405;BME280;1213;43.206;27.922;2022-12-10T11:21:30;100443.13;;;20.56;100.00
2405;BME280;1213;43.206;27.922;2022-12-10T11:23:59;100438.00;;;21.00;100.00
2405;BME280;1213;43.206;27.922;2022-12-10T11:27:07;100432.81;;;21.29;100.00
2405;BME280;1213;43.206;27.922;2022-12-10T11:56:04;100398.69;;;23.50;100.00
2405;BME280;1213;43.206;27.922;2022-12-10T12:06:59;100373.16;;;24.30;100.00
2405;BME280;1213;43.206;27.922;2022-12-10T12:09:35;100386.31;;;23.77;100.00
2405;BME280;1213;43.206;27.922;2022-12-10T12:14:57;100406.81;;;22.71;100.00
2405;BME280;1213;43.206;27.922;2022-12-10T12:17:32;100398.91;;;22.12;100.00
2405;BME280;1213;43.206;27.922;2022-12-10T12:20:14;100406.63;;;21.77;100.00
2405;BME280;1213;43.206;27.922;2022-12-10T12:22:51;100409.56;;;21.97;100.00
2405;BME280;1213;43.206;27.922;2022-12-10T12:25:29;100407.78;;;21.60;100.00
2405;BME280;1213;43.206;27.922;2022-12-10T12:30:26;100420.63;;;20.50;100.00
2405;BME280;1213;43.206;27.922;2022-12-10T12:33:02;100417.47;;;20.38;100.00
2405;BME280;1213;43.206;27.922;2022-12-10T12:35:48;100405.66;;;20.33;100.00
2405;BME280;1213;43.206;27.922;2022-12-10T12:43:20;100392.22;;;20.57;100.00
2405;BME280;1213;43.206;27.922;2022-12-10T12:45:49;100390.94;;;20.45;100.00
2405;BME280;1213;43.206;27.922;2022-12-10T12:48:26;100379.88;;;20.56;100.00
2405;BME280;1213;43.206;27.922;2022-12-10T12:51:06;100372.53;;;20.58;100.00
2405;BME280;1213;43.206;27.922;2022-12-10T12:53:34;100368.91;;;20.43;100.00
2405;BME280;1213;43.206;27.922;2022-12-10T13:04:28;100366.75;;;18.78;100.00
2405;BME280;1213;43.206;27.922;2022-12-10T13:09:49;100359.53;;;18.04;100.00
2405;BME280;1213;43.206;27.922;2022-12-10T13:15:20;100370.38;;;17.51;100.00
2405;BME280;1213;43.206;27.922;2022-12-10T13:20:44;100379.88;;;17.09;100.00
2405;BME280;1213;43.206;27.922;2022-12-10T13:36:28;100387.22;;;16.34;100.00
2405;BME280;1213;43.206;27.922;2022-12-10T13:45:05;100393.69;;;15.95;100.00
2405;BME280;1213;43.206;27.922;2022-12-10T13:47:54;100385.38;;;15.80;100.00
2405;BME280;1213;43.206;27.922;2022-12-10T13:53:05;100367.72;;;15.61;100.00
2405;BME280;1213;43.206;27.922;2022-12-10T13:55:46;100377.50;;;15.51;100.00
2405;BME280;1213;43.206;27.922;2022-12-10T14:06:47;100382.84;;;15.22;100.00
2405;BME280;1213;43.206;27.922;2022-12-10T14:09:42;100383.94;;;15.10;100.00
2405;BME280;1213;43.206;27.922;2022-12-10T14:12:15;100382.44;;;14.97;100.00
2405;BME280;1213;43.206;27.922;2022-12-10T14:14:45;100383.97;;;14.90;100.00
2405;BME280;1213;43.206;27.922;2022-12-10T14:17:18;100386.72;;;14.79;100.00
2405;BME280;1213;43.206;27.922;2022-12-10T14:19:46;100379.22;;;14.75;100.00
2405;BME280;1213;43.206;27.922;2022-12-10T14:22:20;100371.41;;;14.63;100.00
2405;BME280;1213;43.206;27.922;2022-12-10T14:24:49;100367.94;;;14.53;100.00
2405;BME280;1213;43.206;27.922;2022-12-10T14:27:18;100361.22;;;14.49;100.00
2405;BME280;1213;43.206;27.922;2022-12-10T14:29:46;100362.47;;;14.45;100.00
2405;BME280;1213;43.206;27.922;2022-12-10T14:32:20;100360.91;;;14.33;100.00
2405;BME280;1213;43.206;27.922;2022-12-10T14:34:56;100357.97;;;14.26;100.00
2405;BME280;1213;43.206;27.922;2022-12-10T14:37:25;100360.75;;;14.25;100.00
2405;BME280;1213;43.206;27.922;2022-12-10T14:39:52;100353.09;;;14.22;100.00
2405;BME280;1213;43.206;27.922;2022-12-10T14:42:18;100349.63;;;14.21;100.00
2405;BME280;1213;43.206;27.922;2022-12-10T14:44:45;100349.72;;;14.20;100.00
2405;BME280;1213;43.206;27.922;2022-12-10T14:49:46;100362.78;;;14.11;100.00
2405;BME280;1213;43.206;27.922;2022-12-10T14:52:20;100357.09;;;14.06;100.00
2405;BME280;1213;43.206;27.922;2022-12-10T14:54:47;100350.09;;;14.05;100.00
2405;BME280;1213;43.206;27.922;2022-12-10T14:57:28;100336.63;;;13.99;100.00
2405;BME280;1213;43.206;27.922;2022-12-10T15:00:18;100341.31;;;13.95;100.00
2405;BME280;1213;43.206;27.922;2022-12-10T15:02:46;100344.09;;;13.94;100.00
2405;BME280;1213;43.206;27.922;2022-12-10T15:05:16;100349.38;;;13.94;100.00